sensor_id;sensor_type;location;lat;lon;timestamp;temperature;humidity
41592;DHT22;28026;48.562;14.440;2023-01-20T00:02:26;-3.40;99.90
41592;DHT22;28026;48.562;14.440;2023-01-20T00:04:57;-3.40;99.90
41592;DHT22;28026;48.562;14.440;2023-01-20T00:07:28;-3.40;99.90
41592;DHT22;28026;48.562;14.440;2023-01-20T00:09:59;-3.40;99.90
41592;DHT22;28026;48.562;14.440;2023-01-20T00:12:30;-3.40;99.90
41592;DHT22;28026;48.562;14.440;2023-01-20T00:15:02;-3.40;99.90
41592;DHT22;28026;48.562;14.440;2023-01-20T00:17:33;-3.50;99.90
41592;DHT22;28026;48.562;14.440;2023-01-20T00:20:04;-3.40;99.90
41592;DHT22;28026;48.562;14.440;2023-01-20T00:22:36;-3.50;99.90
41592;DHT22;28026;48.562;14.440;2023-01-20T00:25:11;-3.50;99.90
41592;DHT22;28026;48.562;14.440;2023-01-20T00:27:42;-3.40;99.90
41592;DHT22;28026;48.562;14.440;2023-01-20T00:30:13;-3.40;99.90
41592;DHT22;28026;48.562;14.440;2023-01-20T00:32:44;-3.50;99.90
41592;DHT22;28026;48.562;14.440;2023-01-20T00:35:15;-3.50;99.90
41592;DHT22;28026;48.562;14.440;2023-01-20T00:37:46;-3.60;99.90
41592;DHT22;28026;48.562;14.440;2023-01-20T00:40:17;-3.80;99.90
41592;DHT22;28026;48.562;14.440;2023-01-20T00:42:48;-3.80;99.90
41592;DHT22;28026;48.562;14.440;2023-01-20T00:45:19;-3.80;99.90
41592;DHT22;28026;48.562;14.440;2023-01-20T00:47:50;-3.80;99.90
41592;DHT22;28026;48.562;14.440;2023-01-20T00:50:21;-3.70;99.90
41592;DHT22;28026;48.562;14.440;2023-01-20T00:52:51;-3.70;99.90
41592;DHT22;28026;48.562;14.440;2023-01-20T00:55:22;-3.70;99.90
41592;DHT22;28026;48.562;14.440;2023-01-20T00:57:53;-3.70;99.90
41592;DHT22;28026;48.562;14.440;2023-01-20T01:00:24;-3.80;99.90
41592;DHT22;28026;48.562;14.440;2023-01-20T01:02:55;-3.80;99.90
41592;DHT22;28026;48.562;14.440;2023-01-20T01:05:26;-3.80;99.90
41592;DHT22;28026;48.562;14.440;2023-01-20T01:07:57;-3.80;99.90
41592;DHT22;28026;48.562;14.440;2023-01-20T01:10:28;-3.80;99.90
41592;DHT22;28026;48.562;14.440;2023-01-20T01:13:00;-3.70;99.90
41592;DHT22;28026;48.562;14.440;2023-01-20T01:15:33;-3.70;99.90
41592;DHT22;28026;48.562;14.440;2023-01-20T01:18:04;-3.70;99.90
41592;DHT22;28026;48.562;14.440;2023-01-20T01:20:38;-3.80;99.90
41592;DHT22;28026;48.562;14.440;2023-01-20T01:23:09;-3.80;99.90
41592;DHT22;28026;48.562;14.440;2023-01-20T01:25:41;-3.80;99.90
41592;DHT22;28026;48.562;14.440;2023-01-20T01:28:12;-3.80;99.90
41592;DHT22;28026;48.562;14.440;2023-01-20T01:30:43;-3.70;99.90
41592;DHT22;28026;48.562;14.440;2023-01-20T01:33:14;-3.70;99.90
41592;DHT22;28026;48.562;14.440;2023-01-20T01:35:54;-3.70;99.90
41592;DHT22;28026;48.562;14.440;2023-01-20T01:38:29;-3.80;99.90
41592;DHT22;28026;48.562;14.440;2023-01-20T01:41:00;-3.90;99.90
41592;DHT22;28026;48.562;14.440;2023-01-20T01:43:34;-4.00;99.90
41592;DHT22;28026;48.562;14.440;2023-01-20T01:46:07;-4.00;99.90
41592;DHT22;28026;48.562;14.440;2023-01-20T01:48:42;-4.00;99.90
41592;DHT22;28026;48.562;14.440;2023-01-20T01:51:24;-4.00;99.90
41592;DHT22;28026;48.562;14.440;2023-01-20T01:54:12;-4.00;99.90
41592;DHT22;28026;48.562;14.440;2023-01-20T01:56:52;-4.20;99.90
41592;DHT22;28026;48.562;14.440;2023-01-20T01:59:23;-4.30;99.90
41592;DHT22;28026;48.562;14.440;2023-01-20T02:01:54;-4.40;99.90
41592;DHT22;28026;48.562;14.440;2023-01-20T02:04:26;-4.50;99.90
41592;DHT22;28026;48.562;14.440;2023-01-20T02:07:08;-4.40;99.90
41592;DHT22;28026;48.562;14.440;2023-01-20T02:09:45;-4.40;99.90
41592;DHT22;28026;48.562;14.440;2023-01-20T02:12:18;-4.40;99.90
41592;DHT22;28026;48.562;14.440;2023-01-20T02:14:54;-4.30;99.90
41592;DHT22;28026;48.562;14.440;2023-01-20T02:20:59;-4.30;99.90
41592;DHT22;28026;48.562;14.440;2023-01-20T02:26:55;-4.20;99.90
41592;DHT22;28026;48.562;14.440;2023-01-20T02:32:46;-4.30;99.90
41592;DHT22;28026;48.562;14.440;2023-01-20T02:43:48;-4.00;99.90
41592;DHT22;28026;48.562;14.440;2023-01-20T02:46:30;-4.00;99.90
41592;DHT22;28026;48.562;14.440;2023-01-20T02:52:06;-3.90;99.90
41592;DHT22;28026;48.562;14.440;2023-01-20T02:54:48;-3.90;99.90
41592;DHT22;28026;48.562;14.440;2023-01-20T02:57:34;-4.00;99.90
41592;DHT22;28026;48.562;14.440;2023-01-20T03:00:23;-4.00;99.90
41592;DHT22;28026;48.562;14.440;2023-01-20T03:03:06;-4.00;99.90
41592;DHT22;28026;48.562;14.440;2023-01-20T03:05:56;-4.00;99.90
41592;DHT22;28026;48.562;14.440;2023-01-20T03:08:32;-4.00;99.90
41592;DHT22;28026;48.562;14.440;2023-01-20T03:11:06;-3.90;99.90
41592;DHT22;28026;48.562;14.440;2023-01-20T03:16:23;-4.00;99.90
41592;DHT22;28026;48.562;14.440;2023-01-20T03:18:58;-4.10;99.90
41592;DHT22;28026;48.562;14.440;2023-01-20T03:21:29;-4.10;99.90
41592;DHT22;28026;48.562;14.440;2023-01-20T03:24:03;-4.10;99.90
41592;DHT22;28026;48.562;14.440;2023-01-20T03:26:37;-4.10;99.90
41592;DHT22;28026;48.562;14.440;2023-01-20T03:29:09;-4.00;99.90
41592;DHT22;28026;48.562;14.440;2023-01-20T03:32:07;-4.00;99.90
41592;DHT22;28026;48.562;14.440;2023-01-20T03:34:41;-4.00;99.90
41592;DHT22;28026;48.562;14.440;2023-01-20T03:37:13;-4.00;99.90
41592;DHT22;28026;48.562;14.440;2023-01-20T03:39:45;-4.00;99.90
41592;DHT22;28026;48.562;14.440;2023-01-20T03:42:40;-4.10;99.90
41592;DHT22;28026;48.562;14.440;2023-01-20T03:45:41;-4.10;99.90
41592;DHT22;28026;48.562;14.440;2023-01-20T03:48:39;-4.20;99.90
41592;DHT22;28026;48.562;14.440;2023-01-20T03:51:27;-4.20;99.90
41592;DHT22;28026;48.562;14.440;2023-01-20T03:54:51;-4.10;99.90
41592;DHT22;28026;48.562;14.440;2023-01-20T03:57:37;-4.00;99.90
41592;DHT22;28026;48.562;14.440;2023-01-20T04:00:24;-4.00;99.90
41592;DHT22;28026;48.562;14.440;2023-01-20T04:02:59;-3.90;99.90
41592;DHT22;28026;48.562;14.440;2023-01-20T04:05:37;-4.00;99.90
41592;DHT22;28026;48.562;14.440;2023-01-20T04:08:14;-3.90;99.90
41592;DHT22;28026;48.562;14.440;2023-01-20T04:10:50;-3.90;99.90
41592;DHT22;28026;48.562;14.440;2023-01-20T04:13:25;-4.00;99.90
41592;DHT22;28026;48.562;14.440;2023-01-20T04:15:57;-4.30;99.90
41592;DHT22;28026;48.562;14.440;2023-01-20T04:18:31;-4.40;99.90
41592;DHT22;28026;48.562;14.440;2023-01-20T04:21:02;-4.30;99.90
41592;DHT22;28026;48.562;14.440;2023-01-20T04:26:37;-4.20;99.90
41592;DHT22;28026;48.562;14.440;2023-01-20T04:29:07;-4.30;99.90
41592;DHT22;28026;48.562;14.440;2023-01-20T04:31:38;-4.20;99.90
41592;DHT22;28026;48.562;14.440;2023-01-20T04:34:12;-4.20;99.90
41592;DHT22;28026;48.562;14.440;2023-01-20T04:36:47;-4.10;99.90
41592;DHT22;28026;48.562;14.440;2023-01-20T04:39:18;-4.00;99.90
41592;DHT22;28026;48.562;14.440;2023-01-20T04:41:49;-3.90;99.90
41592;DHT22;28026;48.562;14.440;2023-01-20T04:44:20;-4.00;99.90
41592;DHT22;28026;48.562;14.440;2023-01-20T04:46:58;-4.00;99.90
41592;DHT22;28026;48.562;14.440;2023-01-20T04:49:29;-4.10;99.90
41592;DHT22;28026;48.562;14.440;2023-01-20T04:52:00;-4.10;99.90
41592;DHT22;28026;48.562;14.440;2023-01-20T04:54:30;-4.10;99.90
41592;DHT22;28026;48.562;14.440;2023-01-20T04:57:01;-4.20;99.90
41592;DHT22;28026;48.562;14.440;2023-01-20T04:59:32;-4.10;99.90
41592;DHT22;28026;48.562;14.440;2023-01-20T05:02:03;-4.00;99.90
41592;DHT22;28026;48.562;14.440;2023-01-20T05:04:34;-4.00;99.90
41592;DHT22;28026;48.562;14.440;2023-01-20T05:07:07;-4.00;99.90
41592;DHT22;28026;48.562;14.440;2023-01-20T05:09:38;-4.00;99.90
41592;DHT22;28026;48.562;14.440;2023-01-20T05:12:09;-4.10;99.90
41592;DHT22;28026;48.562;14.440;2023-01-20T05:14:39;-4.00;99.90
41592;DHT22;28026;48.562;14.440;2023-01-20T05:17:10;-4.00;99.90
41592;DHT22;28026;48.562;14.440;2023-01-20T05:19:41;-3.90;99.90
41592;DHT22;28026;48.562;14.440;2023-01-20T05:22:13;-3.90;99.90
41592;DHT22;28026;48.562;14.440;2023-01-20T05:24:43;-3.90;99.90
41592;DHT22;28026;48.562;14.440;2023-01-20T05:27:14;-4.00;99.90
41592;DHT22;28026;48.562;14.440;2023-01-20T05:29:45;-4.20;99.90
41592;DHT22;28026;48.562;14.440;2023-01-20T05:32:16;-4.20;99.90
41592;DHT22;28026;48.562;14.440;2023-01-20T05:34:47;-4.20;99.90
41592;DHT22;28026;48.562;14.440;2023-01-20T05:37:18;-4.10;99.90
41592;DHT22;28026;48.562;14.440;2023-01-20T05:39:49;-4.00;99.90
41592;DHT22;28026;48.562;14.440;2023-01-20T05:42:20;-4.00;99.90
41592;DHT22;28026;48.562;14.440;2023-01-20T05:44:51;-3.80;99.90
41592;DHT22;28026;48.562;14.440;2023-01-20T05:47:21;-3.80;99.90
41592;DHT22;28026;48.562;14.440;2023-01-20T05:49:52;-3.90;99.90
41592;DHT22;28026;48.562;14.440;2023-01-20T05:52:23;-4.00;99.90
41592;DHT22;28026;48.562;14.440;2023-01-20T05:54:54;-4.00;99.90
41592;DHT22;28026;48.562;14.440;2023-01-20T05:57:25;-3.90;99.90
41592;DHT22;28026;48.562;14.440;2023-01-20T05:59:56;-3.80;99.90
41592;DHT22;28026;48.562;14.440;2023-01-20T06:02:29;-3.70;99.90
41592;DHT22;28026;48.562;14.440;2023-01-20T06:05:01;-3.70;99.90
41592;DHT22;28026;48.562;14.440;2023-01-20T06:07:31;-3.50;99.90
41592;DHT22;28026;48.562;14.440;2023-01-20T06:10:02;-3.50;99.90
41592;DHT22;28026;48.562;14.440;2023-01-20T06:12:34;-3.50;99.90
41592;DHT22;28026;48.562;14.440;2023-01-20T06:15:05;-3.50;99.90
41592;DHT22;28026;48.562;14.440;2023-01-20T06:17:36;-3.50;99.90
41592;DHT22;28026;48.562;14.440;2023-01-20T06:20:09;-3.50;99.90
41592;DHT22;28026;48.562;14.440;2023-01-20T06:22:40;-3.40;99.90
41592;DHT22;28026;48.562;14.440;2023-01-20T06:25:11;-3.40;99.90
41592;DHT22;28026;48.562;14.440;2023-01-20T06:27:42;-3.40;99.90
41592;DHT22;28026;48.562;14.440;2023-01-20T06:30:13;-3.50;99.90
41592;DHT22;28026;48.562;14.440;2023-01-20T06:32:46;-3.50;99.90
41592;DHT22;28026;48.562;14.440;2023-01-20T06:35:17;-3.50;99.90
41592;DHT22;28026;48.562;14.440;2023-01-20T06:37:48;-3.50;99.90
41592;DHT22;28026;48.562;14.440;2023-01-20T06:40:19;-3.40;99.90
41592;DHT22;28026;48.562;14.440;2023-01-20T06:42:50;-3.40;99.90
41592;DHT22;28026;48.562;14.440;2023-01-20T06:45:21;-3.40;99.90
41592;DHT22;28026;48.562;14.440;2023-01-20T06:47:52;-3.40;99.90
41592;DHT22;28026;48.562;14.440;2023-01-20T06:50:23;-3.50;99.90
41592;DHT22;28026;48.562;14.440;2023-01-20T06:52:54;-3.50;99.90
41592;DHT22;28026;48.562;14.440;2023-01-20T06:55:25;-3.60;99.90
41592;DHT22;28026;48.562;14.440;2023-01-20T06:57:56;-3.60;99.90
41592;DHT22;28026;48.562;14.440;2023-01-20T07:00:27;-3.70;99.90
41592;DHT22;28026;48.562;14.440;2023-01-20T07:02:58;-3.60;99.90
41592;DHT22;28026;48.562;14.440;2023-01-20T07:05:28;-3.60;99.90
41592;DHT22;28026;48.562;14.440;2023-01-20T07:07:59;-3.60;99.90
41592;DHT22;28026;48.562;14.440;2023-01-20T07:10:30;-3.50;99.90
41592;DHT22;28026;48.562;14.440;2023-01-20T07:13:01;-3.60;99.90
41592;DHT22;28026;48.562;14.440;2023-01-20T07:15:32;-3.50;99.90
41592;DHT22;28026;48.562;14.440;2023-01-20T07:18:03;-3.50;99.90
41592;DHT22;28026;48.562;14.440;2023-01-20T07:20:34;-3.50;99.90
41592;DHT22;28026;48.562;14.440;2023-01-20T07:23:05;-3.50;99.90
41592;DHT22;28026;48.562;14.440;2023-01-20T07:25:36;-3.50;99.90
41592;DHT22;28026;48.562;14.440;2023-01-20T07:28:08;-3.30;99.90
41592;DHT22;28026;48.562;14.440;2023-01-20T07:30:39;-3.30;99.90
41592;DHT22;28026;48.562;14.440;2023-01-20T07:33:10;-3.20;99.90
41592;DHT22;28026;48.562;14.440;2023-01-20T07:35:41;-3.10;99.90
41592;DHT22;28026;48.562;14.440;2023-01-20T07:38:12;-3.10;99.90
41592;DHT22;28026;48.562;14.440;2023-01-20T07:40:42;-3.00;99.90
41592;DHT22;28026;48.562;14.440;2023-01-20T07:43:13;-2.90;99.90
41592;DHT22;28026;48.562;14.440;2023-01-20T07:45:44;-2.80;99.90
41592;DHT22;28026;48.562;14.440;2023-01-20T07:48:15;-2.80;99.90
41592;DHT22;28026;48.562;14.440;2023-01-20T07:50:46;-2.80;99.90
41592;DHT22;28026;48.562;14.440;2023-01-20T07:53:17;-2.90;99.90
41592;DHT22;28026;48.562;14.440;2023-01-20T07:55:48;-2.90;99.90
41592;DHT22;28026;48.562;14.440;2023-01-20T07:58:19;-2.80;99.90
41592;DHT22;28026;48.562;14.440;2023-01-20T08:00:49;-2.80;99.90
41592;DHT22;28026;48.562;14.440;2023-01-20T08:03:21;-2.80;99.90
41592;DHT22;28026;48.562;14.440;2023-01-20T08:05:52;-2.70;99.90
41592;DHT22;28026;48.562;14.440;2023-01-20T08:08:23;-2.70;99.90
41592;DHT22;28026;48.562;14.440;2023-01-20T08:10:54;-2.80;99.90
41592;DHT22;28026;48.562;14.440;2023-01-20T08:13:25;-2.70;99.90
41592;DHT22;28026;48.562;14.440;2023-01-20T08:16:01;-2.70;99.90
41592;DHT22;28026;48.562;14.440;2023-01-20T08:18:36;-2.60;99.90
41592;DHT22;28026;48.562;14.440;2023-01-20T08:21:17;-2.50;99.90
41592;DHT22;28026;48.562;14.440;2023-01-20T08:23:56;-2.50;99.90
41592;DHT22;28026;48.562;14.440;2023-01-20T08:26:31;-2.40;99.90
41592;DHT22;28026;48.562;14.440;2023-01-20T08:29:05;-2.40;99.90
41592;DHT22;28026;48.562;14.440;2023-01-20T08:31:39;-2.40;99.90
41592;DHT22;28026;48.562;14.440;2023-01-20T08:34:11;-2.50;99.90
41592;DHT22;28026;48.562;14.440;2023-01-20T08:36:42;-2.60;99.90
41592;DHT22;28026;48.562;14.440;2023-01-20T08:39:14;-2.60;99.90
41592;DHT22;28026;48.562;14.440;2023-01-20T08:41:48;-2.60;99.90
41592;DHT22;28026;48.562;14.440;2023-01-20T08:44:19;-2.60;99.90
41592;DHT22;28026;48.562;14.440;2023-01-20T08:46:50;-2.60;99.90
41592;DHT22;28026;48.562;14.440;2023-01-20T08:49:24;-2.60;99.90
41592;DHT22;28026;48.562;14.440;2023-01-20T08:51:55;-2.50;99.90
41592;DHT22;28026;48.562;14.440;2023-01-20T08:54:26;-2.40;99.90
41592;DHT22;28026;48.562;14.440;2023-01-20T08:56:59;-2.40;99.90
41592;DHT22;28026;48.562;14.440;2023-01-20T08:59:30;-2.30;99.90
41592;DHT22;28026;48.562;14.440;2023-01-20T09:02:01;-2.30;99.90
41592;DHT22;28026;48.562;14.440;2023-01-20T09:04:37;-2.40;99.90
41592;DHT22;28026;48.562;14.440;2023-01-20T09:07:12;-2.40;99.90
41592;DHT22;28026;48.562;14.440;2023-01-20T09:09:43;-2.40;99.90
41592;DHT22;28026;48.562;14.440;2023-01-20T09:12:14;-2.30;99.90
41592;DHT22;28026;48.562;14.440;2023-01-20T09:14:44;-2.30;99.90
41592;DHT22;28026;48.562;14.440;2023-01-20T09:17:16;-2.20;99.90
41592;DHT22;28026;48.562;14.440;2023-01-20T09:19:47;-2.10;99.90
41592;DHT22;28026;48.562;14.440;2023-01-20T09:22:17;-2.10;99.90
41592;DHT22;28026;48.562;14.440;2023-01-20T09:24:48;-2.10;99.90
41592;DHT22;28026;48.562;14.440;2023-01-20T09:27:19;-2.00;99.90
41592;DHT22;28026;48.562;14.440;2023-01-20T09:29:50;-2.10;99.90
41592;DHT22;28026;48.562;14.440;2023-01-20T09:32:21;-2.00;99.90
41592;DHT22;28026;48.562;14.440;2023-01-20T09:34:52;-2.10;99.90
41592;DHT22;28026;48.562;14.440;2023-01-20T09:37:23;-2.10;99.90
41592;DHT22;28026;48.562;14.440;2023-01-20T09:40:17;-2.00;99.90
41592;DHT22;28026;48.562;14.440;2023-01-20T09:43:46;-2.10;99.90
41592;DHT22;28026;48.562;14.440;2023-01-20T09:46:55;-2.00;99.90
41592;DHT22;28026;48.562;14.440;2023-01-20T09:53:46;-2.00;99.90
41592;DHT22;28026;48.562;14.440;2023-01-20T09:56:30;-1.80;99.90
41592;DHT22;28026;48.562;14.440;2023-01-20T09:59:15;-1.80;99.90
41592;DHT22;28026;48.562;14.440;2023-01-20T10:01:59;-1.70;99.90
41592;DHT22;28026;48.562;14.440;2023-01-20T10:05:13;-1.70;99.90
41592;DHT22;28026;48.562;14.440;2023-01-20T10:16:47;-1.70;99.90
41592;DHT22;28026;48.562;14.440;2023-01-20T10:19:42;-1.70;99.90
41592;DHT22;28026;48.562;14.440;2023-01-20T10:28:46;-1.60;99.90
41592;DHT22;28026;48.562;14.440;2023-01-20T10:31:28;-1.40;99.90
41592;DHT22;28026;48.562;14.440;2023-01-20T10:34:15;-1.20;99.90
41592;DHT22;28026;48.562;14.440;2023-01-20T10:37:07;-1.20;99.90
41592;DHT22;28026;48.562;14.440;2023-01-20T10:40:16;-1.20;99.90
41592;DHT22;28026;48.562;14.440;2023-01-20T10:43:13;-1.00;99.90
41592;DHT22;28026;48.562;14.440;2023-01-20T10:49:17;-0.70;99.90
41592;DHT22;28026;48.562;14.440;2023-01-20T10:59:12;-0.60;99.90
41592;DHT22;28026;48.562;14.440;2023-01-20T11:01:51;-0.70;99.90
41592;DHT22;28026;48.562;14.440;2023-01-20T11:04:26;-0.70;99.90
41592;DHT22;28026;48.562;14.440;2023-01-20T11:06:58;-0.90;99.90
41592;DHT22;28026;48.562;14.440;2023-01-20T11:09:36;-0.90;99.90
41592;DHT22;28026;48.562;14.440;2023-01-20T11:12:19;-0.70;99.90
41592;DHT22;28026;48.562;14.440;2023-01-20T11:14:59;-1.00;99.90
41592;DHT22;28026;48.562;14.440;2023-01-20T11:17:30;-0.90;99.90
41592;DHT22;28026;48.562;14.440;2023-01-20T11:20:04;-0.90;99.90
41592;DHT22;28026;48.562;14.440;2023-01-20T11:22:38;-0.80;99.90
41592;DHT22;28026;48.562;14.440;2023-01-20T11:25:25;-0.60;99.90
41592;DHT22;28026;48.562;14.440;2023-01-20T11:27:57;-0.70;99.90
41592;DHT22;28026;48.562;14.440;2023-01-20T11:30:31;-0.70;99.90
41592;DHT22;28026;48.562;14.440;2023-01-20T11:33:25;-0.90;99.90
41592;DHT22;28026;48.562;14.440;2023-01-20T11:38:52;-0.70;99.90
41592;DHT22;28026;48.562;14.440;2023-01-20T11:41:28;-0.70;99.90
41592;DHT22;28026;48.562;14.440;2023-01-20T11:44:00;-0.70;99.90
41592;DHT22;28026;48.562;14.440;2023-01-20T11:46:33;-0.70;99.90
41592;DHT22;28026;48.562;14.440;2023-01-20T11:49:16;-0.60;99.90
41592;DHT22;28026;48.562;14.440;2023-01-20T11:51:56;-0.60;99.90
41592;DHT22;28026;48.562;14.440;2023-01-20T11:54:29;-0.50;99.90
41592;DHT22;28026;48.562;14.440;2023-01-20T11:57:02;-0.60;99.90
41592;DHT22;28026;48.562;14.440;2023-01-20T11:59:47;-0.60;99.90
41592;DHT22;28026;48.562;14.440;2023-01-20T12:02:21;-0.50;99.90
41592;DHT22;28026;48.562;14.440;2023-01-20T12:05:17;-0.50;99.90
41592;DHT22;28026;48.562;14.440;2023-01-20T12:08:04;-0.40;99.90
41592;DHT22;28026;48.562;14.440;2023-01-20T12:10:48;-0.60;99.90
41592;DHT22;28026;48.562;14.440;2023-01-20T12:13:27;-0.60;99.90
41592;DHT22;28026;48.562;14.440;2023-01-20T12:16:27;-0.50;99.90
41592;DHT22;28026;48.562;14.440;2023-01-20T12:19:08;-0.60;99.90
41592;DHT22;28026;48.562;14.440;2023-01-20T12:21:49;-0.60;99.90
41592;DHT22;28026;48.562;14.440;2023-01-20T12:24:29;-0.60;99.90
41592;DHT22;28026;48.562;14.440;2023-01-20T12:27:41;-0.60;99.90
41592;DHT22;28026;48.562;14.440;2023-01-20T12:33:00;-0.80;99.90
41592;DHT22;28026;48.562;14.440;2023-01-20T12:35:39;-0.90;99.90
41592;DHT22;28026;48.562;14.440;2023-01-20T12:38:28;-0.90;99.90
41592;DHT22;28026;48.562;14.440;2023-01-20T12:47:43;-0.80;99.90
41592;DHT22;28026;48.562;14.440;2023-01-20T12:54:01;-0.80;99.90
41592;DHT22;28026;48.562;14.440;2023-01-20T13:03:15;-0.80;99.90
41592;DHT22;28026;48.562;14.440;2023-01-20T13:06:32;-0.70;99.90
41592;DHT22;28026;48.562;14.440;2023-01-20T13:15:21;-0.60;99.90
41592;DHT22;28026;48.562;14.440;2023-01-20T13:18:22;-0.60;99.90
41592;DHT22;28026;48.562;14.440;2023-01-20T13:21:01;-0.70;99.90
41592;DHT22;28026;48.562;14.440;2023-01-20T13:23:36;-0.70;99.90
41592;DHT22;28026;48.562;14.440;2023-01-20T13:26:08;-0.70;99.90
41592;DHT22;28026;48.562;14.440;2023-01-20T13:28:52;-0.60;99.90
41592;DHT22;28026;48.562;14.440;2023-01-20T13:39:46;-0.50;99.90
41592;DHT22;28026;48.562;14.440;2023-01-20T13:45:16;-0.60;99.90
41592;DHT22;28026;48.562;14.440;2023-01-20T13:47:57;-0.70;99.90
41592;DHT22;28026;48.562;14.440;2023-01-20T13:50:40;-0.50;99.90
41592;DHT22;28026;48.562;14.440;2023-01-20T13:55:56;-0.50;99.90
41592;DHT22;28026;48.562;14.440;2023-01-20T13:58:30;-0.50;99.90
41592;DHT22;28026;48.562;14.440;2023-01-20T14:01:05;-0.70;99.90
41592;DHT22;28026;48.562;14.440;2023-01-20T14:04:15;-0.60;99.90
41592;DHT22;28026;48.562;14.440;2023-01-20T14:06:51;-0.70;99.90
41592;DHT22;28026;48.562;14.440;2023-01-20T14:09:24;-0.60;99.90
41592;DHT22;28026;48.562;14.440;2023-01-20T14:11:56;-0.50;99.90
41592;DHT22;28026;48.562;14.440;2023-01-20T14:14:27;-0.40;99.90
41592;DHT22;28026;48.562;14.440;2023-01-20T14:17:00;-0.50;99.90
41592;DHT22;28026;48.562;14.440;2023-01-20T14:19:36;-0.50;99.90
41592;DHT22;28026;48.562;14.440;2023-01-20T14:22:26;-0.60;99.90
41592;DHT22;28026;48.562;14.440;2023-01-20T14:25:01;-0.60;99.90
41592;DHT22;28026;48.562;14.440;2023-01-20T14:27:33;-0.80;99.90
41592;DHT22;28026;48.562;14.440;2023-01-20T14:30:19;-0.80;99.90
41592;DHT22;28026;48.562;14.440;2023-01-20T14:32:54;-0.70;99.90
41592;DHT22;28026;48.562;14.440;2023-01-20T14:35:32;-0.80;99.90
41592;DHT22;28026;48.562;14.440;2023-01-20T14:38:04;-0.80;99.90
41592;DHT22;28026;48.562;14.440;2023-01-20T14:40:35;-0.80;99.90
41592;DHT22;28026;48.562;14.440;2023-01-20T14:45:51;-0.80;99.90
41592;DHT22;28026;48.562;14.440;2023-01-20T14:48:23;-0.80;99.90
41592;DHT22;28026;48.562;14.440;2023-01-20T14:50:54;-0.80;99.90
41592;DHT22;28026;48.562;14.440;2023-01-20T14:53:26;-0.90;99.90
41592;DHT22;28026;48.562;14.440;2023-01-20T14:56:02;-0.70;99.90
41592;DHT22;28026;48.562;14.440;2023-01-20T14:58:43;-0.80;99.90
41592;DHT22;28026;48.562;14.440;2023-01-20T15:01:24;-0.90;99.90
41592;DHT22;28026;48.562;14.440;2023-01-20T15:03:59;-0.80;99.90
41592;DHT22;28026;48.562;14.440;2023-01-20T15:06:32;-0.80;99.90
41592;DHT22;28026;48.562;14.440;2023-01-20T15:09:21;-0.90;99.90
41592;DHT22;28026;48.562;14.440;2023-01-20T15:15:31;-0.90;99.90
41592;DHT22;28026;48.562;14.440;2023-01-20T15:18:13;-0.70;99.90
41592;DHT22;28026;48.562;14.440;2023-01-20T15:20:57;-0.80;99.90
41592;DHT22;28026;48.562;14.440;2023-01-20T15:23:50;-0.80;99.90
41592;DHT22;28026;48.562;14.440;2023-01-20T15:26:27;-0.90;99.90
41592;DHT22;28026;48.562;14.440;2023-01-20T15:29:00;-0.90;99.90
41592;DHT22;28026;48.562;14.440;2023-01-20T15:31:30;-0.90;99.90
41592;DHT22;28026;48.562;14.440;2023-01-20T15:34:02;-0.80;99.90
41592;DHT22;28026;48.562;14.440;2023-01-20T15:36:33;-1.00;99.90
41592;DHT22;28026;48.562;14.440;2023-01-20T15:39:10;-1.00;99.90
41592;DHT22;28026;48.562;14.440;2023-01-20T15:41:46;-1.00;99.90
41592;DHT22;28026;48.562;14.440;2023-01-20T15:44:24;-1.00;99.90
41592;DHT22;28026;48.562;14.440;2023-01-20T15:46:55;-1.00;99.90
41592;DHT22;28026;48.562;14.440;2023-01-20T15:49:26;-1.10;99.90
41592;DHT22;28026;48.562;14.440;2023-01-20T15:51:57;-1.10;99.90
41592;DHT22;28026;48.562;14.440;2023-01-20T15:54:28;-1.10;99.90
41592;DHT22;28026;48.562;14.440;2023-01-20T15:56:59;-1.10;99.90
41592;DHT22;28026;48.562;14.440;2023-01-20T15:59:29;-1.10;99.90
41592;DHT22;28026;48.562;14.440;2023-01-20T16:02:02;-1.10;99.90
41592;DHT22;28026;48.562;14.440;2023-01-20T16:04:38;-1.20;99.90
41592;DHT22;28026;48.562;14.440;2023-01-20T16:07:17;-1.10;99.90
41592;DHT22;28026;48.562;14.440;2023-01-20T16:09:50;-1.20;99.90
41592;DHT22;28026;48.562;14.440;2023-01-20T16:12:21;-1.20;99.90
41592;DHT22;28026;48.562;14.440;2023-01-20T16:14:52;-1.30;99.90
41592;DHT22;28026;48.562;14.440;2023-01-20T16:17:24;-1.30;99.90
41592;DHT22;28026;48.562;14.440;2023-01-20T16:20:00;-1.20;99.90
41592;DHT22;28026;48.562;14.440;2023-01-20T16:22:31;-1.20;99.90
41592;DHT22;28026;48.562;14.440;2023-01-20T16:25:02;-1.20;99.90
41592;DHT22;28026;48.562;14.440;2023-01-20T16:27:33;-1.20;99.90
41592;DHT22;28026;48.562;14.440;2023-01-20T16:30:05;-1.30;99.90
41592;DHT22;28026;48.562;14.440;2023-01-20T16:32:36;-1.30;99.90
41592;DHT22;28026;48.562;14.440;2023-01-20T16:35:10;-1.30;99.90
41592;DHT22;28026;48.562;14.440;2023-01-20T16:37:45;-1.40;99.90
41592;DHT22;28026;48.562;14.440;2023-01-20T16:40:19;-1.40;99.90
41592;DHT22;28026;48.562;14.440;2023-01-20T16:42:53;-1.50;99.90
41592;DHT22;28026;48.562;14.440;2023-01-20T16:45:28;-1.50;99.90
41592;DHT22;28026;48.562;14.440;2023-01-20T16:47:59;-1.50;99.90
41592;DHT22;28026;48.562;14.440;2023-01-20T16:50:30;-1.50;99.90
41592;DHT22;28026;48.562;14.440;2023-01-20T16:53:00;-1.50;99.90
41592;DHT22;28026;48.562;14.440;2023-01-20T16:55:32;-1.50;99.90
41592;DHT22;28026;48.562;14.440;2023-01-20T16:58:03;-1.50;99.90
41592;DHT22;28026;48.562;14.440;2023-01-20T17:00:36;-1.50;99.90
41592;DHT22;28026;48.562;14.440;2023-01-20T17:03:07;-1.50;99.90
41592;DHT22;28026;48.562;14.440;2023-01-20T17:05:38;-1.60;99.90
41592;DHT22;28026;48.562;14.440;2023-01-20T17:08:09;-1.80;99.90
41592;DHT22;28026;48.562;14.440;2023-01-20T17:10:46;-1.90;99.90
41592;DHT22;28026;48.562;14.440;2023-01-20T17:13:17;-1.80;99.90
41592;DHT22;28026;48.562;14.440;2023-01-20T17:15:48;-1.80;99.90
41592;DHT22;28026;48.562;14.440;2023-01-20T17:18:21;-1.80;99.90
41592;DHT22;28026;48.562;14.440;2023-01-20T17:20:52;-1.70;99.90
41592;DHT22;28026;48.562;14.440;2023-01-20T17:23:26;-1.60;99.90
41592;DHT22;28026;48.562;14.440;2023-01-20T17:25:57;-1.70;99.90
41592;DHT22;28026;48.562;14.440;2023-01-20T17:28:30;-1.60;99.90
41592;DHT22;28026;48.562;14.440;2023-01-20T17:31:03;-1.50;99.90
41592;DHT22;28026;48.562;14.440;2023-01-20T17:33:36;-1.50;99.90
41592;DHT22;28026;48.562;14.440;2023-01-20T17:36:08;-1.50;99.90
41592;DHT22;28026;48.562;14.440;2023-01-20T17:38:39;-1.60;99.90
41592;DHT22;28026;48.562;14.440;2023-01-20T17:41:11;-1.70;99.90
41592;DHT22;28026;48.562;14.440;2023-01-20T17:43:44;-1.60;99.90
41592;DHT22;28026;48.562;14.440;2023-01-20T17:46:21;-1.60;99.90
41592;DHT22;28026;48.562;14.440;2023-01-20T17:49:00;-1.70;99.90
41592;DHT22;28026;48.562;14.440;2023-01-20T17:51:34;-1.60;99.90
41592;DHT22;28026;48.562;14.440;2023-01-20T17:54:04;-1.60;99.90